Time;durP1;ratioP1;P1;durP2;ratioP2;P2;SDS_P1;SDS_P2;PMS_P1;PMS_P2;Temp;Humidity;BMP_temperature;BMP_pressure;BME280_temperature;BME280_humidity;BME280_pressure;Samples;Min_cycle;Max_cycle;Signal;HPM_P1;HPM_P2
2021/05/11 00:01:56;;;;;;;;;;;;;;;8.31;40.91;100025.16;1785977;79;20170;-65
2021/05/11 00:04:24;;;;;;;;;;;;;;;8.30;41.07;100018.23;1786852;79;20139;-65
2021/05/11 00:06:51;;;;;;;;;;;;;;;8.27;41.33;100019.78;1797228;79;20127;-65
2021/05/11 00:09:20;;;;;;;;;;;;;;;8.24;41.52;100017.39;1781985;79;20226;-65
2021/05/11 00:11:48;;;;;;;;;;;;;;;8.20;41.71;100018.61;1783615;79;20418;-65
2021/05/11 00:14:16;;;;;;;;;;;;;;;8.17;41.91;100013.58;1789087;79;20175;-65
2021/05/11 00:16:43;;;;;;;;;;;;;;;8.13;41.98;100012.98;1762732;79;20218;-65
2021/05/11 00:19:13;;;;;;;;;;;;;;;8.11;42.18;100004.86;1785440;79;20162;-65
2021/05/11 00:21:40;;;;;;;;;;;;;;;8.08;42.12;100003.78;1791278;79;20143;-65
2021/05/11 00:24:09;;;;;;;;;;;;;;;8.05;42.25;99987.76;1784652;79;20465;-65
2021/05/11 00:26:38;;;;;;;;;;;;;;;8.04;42.34;99994.46;1759208;79;20230;-65
2021/05/11 00:29:06;;;;;;;;;;;;;;;8.00;42.44;99987.29;1756524;79;20147;-65
2021/05/11 00:31:35;;;;;;;;;;;;;;;7.96;42.60;99994.59;1799508;79;20154;-65
2021/05/11 00:34:03;;;;;;;;;;;;;;;7.94;42.79;99998.33;1786459;79;20162;-65
2021/05/11 00:36:31;;;;;;;;;;;;;;;7.91;42.84;99995.47;1779871;79;20142;-65
2021/05/11 00:38:58;;;;;;;;;;;;;;;7.87;42.90;99991.38;1785307;79;20146;-65
2021/05/11 00:41:27;;;;;;;;;;;;;;;7.86;42.82;99990.22;1798492;79;20159;-65
2021/05/11 00:43:54;;;;;;;;;;;;;;;7.84;42.86;99991.65;1796383;79;20226;-65
2021/05/11 00:46:22;;;;;;;;;;;;;;;7.82;42.85;99987.45;1750337;80;20136;-65
2021/05/11 00:48:51;;;;;;;;;;;;;;;7.80;42.90;99987.59;1776637;80;20123;-65
2021/05/11 00:51:18;;;;;;;;;;;;;;;7.80;43.11;99988.05;1783839;79;20127;-65
2021/05/11 00:53:46;;;;;;;;;;;;;;;7.77;43.31;99985.20;1750188;80;20175;-65
2021/05/11 00:56:15;;;;;;;;;;;;;;;7.76;43.48;99982.19;1758493;79;20459;-65
2021/05/11 00:58:43;;;;;;;;;;;;;;;7.73;43.64;99981.14;1791289;79;20233;-65
2021/05/11 01:01:10;;;;;;;;;;;;;;;7.71;43.77;99980.43;1784093;79;20169;-65
2021/05/11 01:03:38;;;;;;;;;;;;;;;7.67;43.82;99978.97;1790701;79;20398;-65
2021/05/11 01:06:06;;;;;;;;;;;;;;;7.66;43.93;99977.31;1785213;79;20151;-65
2021/05/11 01:08:34;;;;;;;;;;;;;;;7.65;44.06;99980.89;1782128;79;20422;-65
2021/05/11 01:11:02;;;;;;;;;;;;;;;7.63;44.19;99978.87;1781600;79;20143;-65
2021/05/11 01:13:30;;;;;;;;;;;;;;;7.60;44.37;99975.19;1783918;79;20123;-65
2021/05/11 01:15:59;;;;;;;;;;;;;;;7.59;44.53;99973.01;1791201;79;20875;-65
2021/05/11 01:18:31;;;;;;;;;;;;;;;7.57;44.66;99974.92;1776853;79;20154;-65
2021/05/11 01:21:02;;;;;;;;;;;;;;;7.54;44.81;99976.02;1783408;79;20143;-65
2021/05/11 01:24:12;;;;;;;;;;;;;;;7.52;44.93;99973.99;1779508;79;20257;-65
2021/05/11 01:26:07;;;;;;;;;;;;;;;7.51;45.12;99979.38;1769064;79;20147;-65
2021/05/11 01:28:46;;;;;;;;;;;;;;;7.48;45.40;99969.94;1786166;79;20142;-65
2021/05/11 01:50:10;;;;;;;;;;;;;;;7.32;48.22;99962.39;1760381;79;20151;-64
2021/05/11 01:55:26;;;;;;;;;;;;;;;7.29;49.22;99967.06;1796248;79;20341;-65
2021/05/11 02:22:40;;;;;;;;;;;;;;;7.17;53.78;99973.63;1789258;79;20206;-66
2021/05/11 02:25:04;;;;;;;;;;;;;;;7.17;54.17;99972.32;1798363;79;20414;-65
2021/05/11 02:27:33;;;;;;;;;;;;;;;7.17;54.34;99972.32;1787009;79;20433;-65
2021/05/11 02:30:04;;;;;;;;;;;;;;;7.18;54.52;99975.32;1777594;79;20229;-65
2021/05/11 02:32:32;;;;;;;;;;;;;;;7.18;54.80;99970.52;1789046;79;20407;-65
2021/05/11 02:35:00;;;;;;;;;;;;;;;7.19;55.03;99966.95;1795960;79;20146;-65
2021/05/11 02:37:27;;;;;;;;;;;;;;;7.21;55.20;99970.77;1783478;79;20226;-65
2021/05/11 02:39:55;;;;;;;;;;;;;;;7.22;55.51;99968.48;1776115;79;20159;-65
2021/05/11 02:42:23;;;;;;;;;;;;;;;7.23;55.84;99963.59;1794160;79;20138;-65
2021/05/11 02:44:52;;;;;;;;;;;;;;;7.25;56.03;99973.52;1792151;79;20225;-65
2021/05/11 02:47:19;;;;;;;;;;;;;;;7.26;56.20;99967.31;1787072;79;20127;-65
2021/05/11 02:49:50;;;;;;;;;;;;;;;7.28;56.43;99965.40;1792098;79;20159;-65
2021/05/11 02:52:17;;;;;;;;;;;;;;;7.30;56.55;99959.54;1782741;79;20419;-65
2021/05/11 02:54:45;;;;;;;;;;;;;;;7.32;56.69;99966.34;1787416;79;20135;-65
2021/05/11 02:57:12;;;;;;;;;;;;;;;7.34;56.73;99962.28;1789046;79;20438;-65
2021/05/11 02:59:40;;;;;;;;;;;;;;;7.39;56.80;99962.77;1795975;79;20131;-65
2021/05/11 03:02:09;;;;;;;;;;;;;;;7.41;56.61;99958.67;1784908;79;20230;-65
2021/05/11 03:04:37;;;;;;;;;;;;;;;7.45;56.30;99960.95;1790047;79;20537;-65
2021/05/11 03:07:05;;;;;;;;;;;;;;;7.48;56.07;99959.41;1783813;79;20269;-65
2021/05/11 03:09:33;;;;;;;;;;;;;;;7.52;55.87;99967.41;1776866;79;20138;-65
2021/05/11 03:12:02;;;;;;;;;;;;;;;7.55;55.50;99959.25;1787517;79;20430;-65
2021/05/11 03:14:33;;;;;;;;;;;;;;;7.59;55.15;99958.53;1776432;79;20143;-65
2021/05/11 03:16:59;;;;;;;;;;;;;;;7.63;54.86;99953.86;1762341;79;20447;-65
2021/05/11 03:19:27;;;;;;;;;;;;;;;7.67;54.67;99956.59;1780245;79;20127;-65
2021/05/11 03:21:54;;;;;;;;;;;;;;;7.70;54.40;99950.61;1787913;79;20134;-65
2021/05/11 03:24:22;;;;;;;;;;;;;;;7.75;54.23;99957.67;1792705;79;20386;-65
2021/05/11 03:26:50;;;;;;;;;;;;;;;7.80;54.05;99956.00;1789255;79;20130;-65
2021/05/11 03:29:19;;;;;;;;;;;;;;;7.85;53.88;99960.39;1790851;79;20430;-65
2021/05/11 03:31:47;;;;;;;;;;;;;;;7.89;53.75;99956.58;1789325;79;20399;-65
2021/05/11 03:34:14;;;;;;;;;;;;;;;7.94;53.50;99954.87;1756499;79;20127;-65
2021/05/11 03:36:42;;;;;;;;;;;;;;;8.01;53.27;99959.17;1784863;79;20414;-65
2021/05/11 03:39:09;;;;;;;;;;;;;;;8.06;53.04;99956.98;1776736;79;20142;-65
2021/05/11 03:41:40;;;;;;;;;;;;;;;8.14;52.89;99949.30;1776594;79;20410;-65
2021/05/11 03:44:10;;;;;;;;;;;;;;;8.19;52.59;99945.78;1756740;80;20180;-65
2021/05/11 03:46:37;;;;;;;;;;;;;;;8.26;52.28;99947.45;1784898;79;20178;-65
2021/05/11 03:49:31;;;;;;;;;;;;;;;8.38;52.09;99941.17;1936104;74;20229;-65
2021/05/11 03:52:25;;;;;;;;;;;;;;;8.46;52.03;99944.52;1915956;74;20240;-65
2021/05/11 03:55:18;;;;;;;;;;;;;;;8.53;51.86;99946.52;1888667;74;20255;-66
2021/05/11 03:58:12;;;;;;;;;;;;;;;8.62;51.56;99944.91;1914891;74;20225;-65
2021/05/11 04:01:06;;;;;;;;;;;;;;;8.70;51.33;99943.77;1923627;74;20225;-72
2021/05/11 04:04:03;;;;;;;;;;;;;;;8.80;50.78;99946.46;1921453;74;20241;-69
2021/05/11 04:06:57;;;;;;;;;;;;;;;8.90;50.64;99951.32;1924633;74;20485;-68
2021/05/11 04:09:57;;;;;;;;;;;;;;;9.02;50.24;99958.66;1924718;74;20221;-69
2021/05/11 04:16:17;;;;;;;;;;;;;;;9.33;48.93;99962.59;1924739;74;20393;-68
2021/05/11 04:19:05;;;;;;;;;;;;;;;9.51;48.62;99964.95;1915434;74;20228;-69
2021/05/11 04:21:59;;;;;;;;;;;;;;;9.69;48.02;99964.33;1916019;74;20477;-69
2021/05/11 04:24:56;;;;;;;;;;;;;;;9.90;47.23;99965.05;1912510;74;20237;-68
2021/05/11 04:27:42;;;;;;;;;;;;;;;10.04;46.68;99959.02;1882744;75;20120;-68
2021/05/11 04:30:37;;;;;;;;;;;;;;;10.39;46.04;99955.03;1912037;74;20233;-69
2021/05/11 04:33:26;;;;;;;;;;;;;;;10.57;45.51;99955.98;1902493;75;20144;-68
2021/05/11 04:36:19;;;;;;;;;;;;;;;10.96;44.80;99954.59;1937068;74;20232;-69
2021/05/11 04:39:14;;;;;;;;;;;;;;;11.30;43.95;99951.39;1910501;74;20129;-68
2021/05/11 04:42:08;;;;;;;;;;;;;;;11.66;42.95;99951.48;1921485;74;20485;-68
2021/05/11 04:45:02;;;;;;;;;;;;;;;12.06;42.01;99948.94;1900817;74;20237;-69
2021/05/11 04:47:57;;;;;;;;;;;;;;;12.48;41.28;99944.34;1848609;77;20159;-68
2021/05/11 04:50:51;;;;;;;;;;;;;;;12.90;41.00;99944.12;1931056;74;20225;-69
2021/05/11 04:53:45;;;;;;;;;;;;;;;13.36;39.56;99952.20;1934836;74;20489;-69
2021/05/11 04:56:39;;;;;;;;;;;;;;;13.81;38.36;99946.71;1844970;77;20184;-69
2021/05/11 04:59:34;;;;;;;;;;;;;;;14.25;37.35;99941.96;1835824;77;20247;-69
2021/05/11 05:02:30;;;;;;;;;;;;;;;14.72;35.93;99937.81;1846648;77;20469;-70
2021/05/11 05:05:25;;;;;;;;;;;;;;;15.21;34.97;99936.34;1837889;77;20271;-71
2021/05/11 05:08:18;;;;;;;;;;;;;;;15.69;34.15;99934.95;1936962;74;20245;-69
2021/05/11 05:11:14;;;;;;;;;;;;;;;16.18;32.95;99936.50;1837893;77;20253;-70
2021/05/11 05:14:08;;;;;;;;;;;;;;;16.62;32.17;99933.97;1928948;74;20221;-70
2021/05/11 05:17:02;;;;;;;;;;;;;;;17.05;31.50;99939.56;1910522;74;20141;-69
2021/05/11 05:19:56;;;;;;;;;;;;;;;17.48;30.61;99938.91;1935979;74;20233;-70
2021/05/11 05:22:51;;;;;;;;;;;;;;;17.91;30.00;99935.00;1828289;77;20235;-71
2021/05/11 05:25:39;;;;;;;;;;;;;;;18.20;29.08;99930.05;1769944;79;20173;-70
2021/05/11 05:28:37;;;;;;;;;;;;;;;18.67;28.11;99929.62;1846431;77;20209;-71
2021/05/11 05:31:22;;;;;;;;;;;;;;;18.94;27.90;99927.44;1799459;79;20142;-70
2021/05/11 05:34:17;;;;;;;;;;;;;;;19.38;27.08;99919.55;1839669;77;20242;-70
2021/05/11 05:37:12;;;;;;;;;;;;;;;19.68;26.49;99923.78;1887926;75;20151;-70
2021/05/11 05:40:09;;;;;;;;;;;;;;;20.03;26.38;99924.52;1846991;77;20223;-70
2021/05/11 05:42:55;;;;;;;;;;;;;;;20.20;25.99;99914.71;1799074;78;20191;-70
2021/05/11 05:45:53;;;;;;;;;;;;;;;20.56;24.66;99913.80;1936531;74;20221;-71
2021/05/11 05:48:40;;;;;;;;;;;;;;;20.78;24.61;99912.77;1888282;75;20147;-73
2021/05/11 05:51:33;;;;;;;;;;;;;;;21.18;23.67;99909.99;1906002;74;20233;-71
2021/05/11 05:54:30;;;;;;;;;;;;;;;21.50;23.54;99907.70;1826961;77;20240;-70
2021/05/11 05:57:25;;;;;;;;;;;;;;;21.79;23.62;99912.23;1833291;77;20225;-72
2021/05/11 06:00:20;;;;;;;;;;;;;;;21.97;22.75;99912.02;1915383;74;20129;-74
2021/05/11 06:06:27;;;;;;;;;;;;;;;22.95;21.81;99903.33;1837969;77;20226;-71
2021/05/11 06:09:22;;;;;;;;;;;;;;;23.43;20.73;99903.09;1844420;77;20250;-71
2021/05/11 06:12:21;;;;;;;;;;;;;;;23.95;19.93;99898.58;1926727;74;20233;-73
2021/05/11 06:18:24;;;;;;;;;;;;;;;24.94;19.36;99907.44;1937590;74;20193;-72
2021/05/11 06:21:19;;;;;;;;;;;;;;;25.52;19.08;99911.09;1836105;77;20237;-72
2021/05/11 06:24:13;;;;;;;;;;;;;;;26.11;18.43;99908.12;1926827;74;20233;-74
2021/05/11 06:27:09;;;;;;;;;;;;;;;26.61;17.65;99907.31;1907672;74;20237;-72
2021/05/11 06:30:04;;;;;;;;;;;;;;;27.02;16.83;99903.83;1910723;74;20496;-69
2021/05/11 06:32:59;;;;;;;;;;;;;;;27.37;16.07;99905.92;1830486;77;20142;-71
2021/05/11 06:35:53;;;;;;;;;;;;;;;27.69;15.82;99904.09;1906255;74;20262;-71
2021/05/11 06:38:48;;;;;;;;;;;;;;;28.14;15.09;99900.74;1842868;77;20142;-74
2021/05/11 06:41:45;;;;;;;;;;;;;;;28.45;14.67;99900.45;1927766;74;20141;-72
2021/05/11 06:47:58;;;;;;;;;;;;;;;29.14;13.84;99902.81;1890775;75;20145;-74
2021/05/11 06:54:03;;;;;;;;;;;;;;;29.88;13.63;99900.84;1927002;74;20238;-77
2021/05/11 06:56:57;;;;;;;;;;;;;;;30.19;13.66;99898.15;1912170;74;20288;-75
2021/05/11 06:59:51;;;;;;;;;;;;;;;30.58;13.17;99890.75;1908048;74;20225;-73
2021/05/11 07:02:44;;;;;;;;;;;;;;;30.95;13.05;99889.59;1903481;74;20520;-74
2021/05/11 07:05:39;;;;;;;;;;;;;;;31.31;13.16;99886.70;1928677;74;21061;-72
2021/05/11 07:13:08;;;;;;;;;;;;;;;31.79;13.38;99892.46;1902869;74;20157;-72
2021/05/11 07:14:31;;;;;;;;;;;;;;;31.91;13.19;99894.30;1901552;74;20236;-76
2021/05/11 07:17:27;;;;;;;;;;;;;;;32.21;12.98;99882.88;1835311;77;20158;-73
2021/05/11 07:20:22;;;;;;;;;;;;;;;32.49;12.70;99887.27;1877496;76;20248;-77
2021/05/11 07:23:21;;;;;;;;;;;;;;;32.63;12.61;99892.90;1842493;77;20246;-74
2021/05/11 07:32:12;;;;;;;;;;;;;;;33.63;12.29;99884.80;1916777;74;20325;-73
2021/05/11 07:35:17;;;;;;;;;;;;;;;33.80;12.36;99885.14;1913191;74;20134;-74
2021/05/11 07:38:11;;;;;;;;;;;;;;;33.89;11.85;99877.59;1832007;75;20289;-75
2021/05/11 07:40:56;;;;;;;;;;;;;;;34.03;11.44;99882.02;1820263;78;20171;-73
2021/05/11 07:43:56;;;;;;;;;;;;;;;34.20;11.34;99877.93;1848125;77;20294;-73
2021/05/11 08:06:28;;;;;;;;;;;;;;;35.25;10.43;99816.84;1924779;74;20293;-74
2021/05/11 08:15:26;;;;;;;;;;;;;;;35.61;10.47;99844.86;1927362;74;20184;-76
2021/05/11 08:27:47;;;;;;;;;;;;;;;36.07;10.19;99842.95;1920923;74;20161;-78
2021/05/11 08:30:40;;;;;;;;;;;;;;;36.15;10.28;99832.55;1909641;74;20323;-75
2021/05/11 08:33:43;;;;;;;;;;;;;;;36.00;10.40;99822.75;1884386;74;20231;-76
2021/05/11 08:47:27;;;;;;;;;;;;;;;36.74;9.90;99819.98;1918577;74;20287;-78
2021/05/11 08:50:27;;;;;;;;;;;;;;;36.83;9.68;99815.31;1802598;77;20151;-78
2021/05/11 09:09:13;;;;;;;;;;;;;;;36.59;10.41;99797.00;1914760;74;20476;-77
2021/05/11 09:27:50;;;;;;;;;;;;;;;36.20;10.87;99772.48;1868967;75;20171;-77
2021/05/11 09:30:57;;;;;;;;;;;;;;;36.05;11.74;99770.36;1923530;74;20284;-77
2021/05/11 09:34:05;;;;;;;;;;;;;;;36.11;11.48;99762.20;1917267;74;20332;-75
2021/05/11 10:37:48;;;;;;;;;;;;;;;37.35;11.17;99713.94;1934894;74;20280;-74
2021/05/11 10:46:41;;;;;;;;;;;;;;;36.75;11.75;99693.52;1830444;77;20130;-73
2021/05/11 10:49:28;;;;;;;;;;;;;;;36.65;11.84;99684.18;1809895;78;20458;-75
2021/05/11 10:52:26;;;;;;;;;;;;;;;36.19;12.26;99686.34;1929361;74;20287;-74
2021/05/11 10:55:27;;;;;;;;;;;;;;;35.55;12.33;99688.84;1911321;74;20475;-72
2021/05/11 10:58:23;;;;;;;;;;;;;;;35.15;13.05;99687.36;1909519;74;20257;-72
2021/05/11 11:01:32;;;;;;;;;;;;;;;34.70;13.39;99685.95;1911916;74;20233;-73
2021/05/11 11:04:32;;;;;;;;;;;;;;;34.15;13.90;99681.27;1927875;74;20233;-73
2021/05/11 11:07:39;;;;;;;;;;;;;;;33.81;14.16;99682.48;1929985;74;20282;-71
2021/05/11 11:10:33;;;;;;;;;;;;;;;33.39;14.11;99677.45;1919029;74;20122;-72
2021/05/11 11:13:27;;;;;;;;;;;;;;;33.05;14.51;99681.27;1920646;74;20241;-72
2021/05/11 11:16:21;;;;;;;;;;;;;;;32.82;14.60;99680.80;1937059;74;20225;-76
2021/05/11 11:19:17;;;;;;;;;;;;;;;32.54;14.73;99679.79;1833283;77;20238;-73
2021/05/11 11:25:25;;;;;;;;;;;;;;;31.98;15.09;99662.12;1912862;74;20221;-71
2021/05/11 11:28:30;;;;;;;;;;;;;;;31.66;16.07;99657.52;1931164;74;20225;-71
2021/05/11 11:31:28;;;;;;;;;;;;;;;31.48;16.18;99659.08;1911453;74;20121;-72
2021/05/11 11:34:21;;;;;;;;;;;;;;;31.39;16.59;99655.31;1868319;75;20187;-70
2021/05/11 11:37:16;;;;;;;;;;;;;;;31.27;17.16;99649.39;1906464;74;20229;-70
2021/05/11 11:40:11;;;;;;;;;;;;;;;31.01;16.89;99644.16;1928963;74;20233;-71
2021/05/11 11:43:18;;;;;;;;;;;;;;;30.72;16.81;99640.77;1840815;77;20233;-72
2021/05/11 11:46:12;;;;;;;;;;;;;;;30.46;17.54;99631.91;1870709;76;20171;-72
2021/05/11 11:52:22;;;;;;;;;;;;;;;30.18;18.36;99632.83;1835935;77;20237;-73
2021/05/11 11:58:27;;;;;;;;;;;;;;;29.75;18.12;99628.91;1845399;77;20291;-74
2021/05/11 12:01:23;;;;;;;;;;;;;;;29.54;18.69;99626.19;1915664;74;20236;-73
2021/05/11 12:04:21;;;;;;;;;;;;;;;29.55;19.12;99626.47;1937084;74;20235;-72
2021/05/11 12:07:17;;;;;;;;;;;;;;;29.57;18.90;99623.45;1843971;77;20142;-73
2021/05/11 12:10:18;;;;;;;;;;;;;;;29.50;19.30;99623.75;1918546;74;20236;-70
2021/05/11 12:13:22;;;;;;;;;;;;;;;29.39;19.00;99614.77;1938023;74;20243;-68
2021/05/11 12:16:20;;;;;;;;;;;;;;;29.29;19.87;99614.80;1849964;77;20277;-69
2021/05/11 12:19:17;;;;;;;;;;;;;;;29.24;19.36;99613.43;1842567;77;20173;-71
2021/05/11 12:22:14;;;;;;;;;;;;;;;29.13;19.45;99613.13;1835307;77;20326;-71
2021/05/11 12:25:08;;;;;;;;;;;;;;;29.02;19.52;99606.31;1938282;74;20225;-69
2021/05/11 12:28:03;;;;;;;;;;;;;;;28.90;19.72;99606.30;1916707;74;20281;-69
2021/05/11 12:30:59;;;;;;;;;;;;;;;28.83;19.64;99607.39;1926903;74;20189;-71
2021/05/11 12:33:54;;;;;;;;;;;;;;;28.73;20.35;99603.31;1937077;74;20232;-71
2021/05/11 12:36:51;;;;;;;;;;;;;;;28.66;20.11;99605.48;1936813;74;20225;-73
2021/05/11 12:40:10;;;;;;;;;;;;;;;28.63;20.39;99602.73;1928552;74;20137;-70
2021/05/11 12:43:03;;;;;;;;;;;;;;;28.59;20.26;99599.48;1923443;74;20453;-70
2021/05/11 12:45:58;;;;;;;;;;;;;;;28.56;20.84;99598.64;1883000;76;20241;-71
2021/05/11 12:49:03;;;;;;;;;;;;;;;28.52;20.88;99596.16;1923998;74;20114;-69
2021/05/11 12:51:59;;;;;;;;;;;;;;;28.48;20.66;99595.08;1918536;74;20129;-66
2021/05/11 12:54:54;;;;;;;;;;;;;;;28.44;20.79;99580.64;1919346;74;20258;-68
2021/05/11 12:57:57;;;;;;;;;;;;;;;28.41;20.91;99575.77;1892481;76;20144;-70
2021/05/11 13:00:48;;;;;;;;;;;;;;;28.34;20.77;99572.48;1939326;74;20228;-69
2021/05/11 13:26:07;;;;;;;;;;;;;;;27.49;21.87;99546.83;1933012;74;20156;-65
2021/05/11 13:29:01;;;;;;;;;;;;;;;27.45;22.04;99541.10;1908770;74;20153;-62
2021/05/11 13:34:48;;;;;;;;;;;;;;;27.32;22.33;99528.55;1858957;76;20241;-62
2021/05/11 13:37:42;;;;;;;;;;;;;;;27.27;22.36;99530.16;1922621;74;20237;-68
2021/05/11 13:40:37;;;;;;;;;;;;;;;27.24;22.55;99533.35;1844034;77;20245;-62
2021/05/11 13:43:31;;;;;;;;;;;;;;;27.18;22.78;99529.52;1937078;74;20181;-59
2021/05/11 13:46:24;;;;;;;;;;;;;;;27.09;22.79;99530.54;1936652;74;20141;-59
2021/05/11 13:49:20;;;;;;;;;;;;;;;27.01;22.89;99525.58;1840708;77;20149;-60
2021/05/11 13:52:15;;;;;;;;;;;;;;;26.94;22.90;99527.72;1921242;74;20134;-65
2021/05/11 13:55:35;;;;;;;;;;;;;;;26.85;22.79;99532.25;1912702;74;20231;-65
2021/05/11 14:04:33;;;;;;;;;;;;;;;26.69;23.13;99520.99;1862618;76;20249;-65
2021/05/11 14:07:28;;;;;;;;;;;;;;;26.66;23.38;99515.56;1928916;74;20240;-66
2021/05/11 14:10:22;;;;;;;;;;;;;;;26.60;23.00;99515.24;1930197;74;20228;-64
2021/05/11 14:13:17;;;;;;;;;;;;;;;26.53;22.97;99511.34;1883205;76;20124;-65
2021/05/11 14:16:04;;;;;;;;;;;;;;;26.42;22.98;99517.75;1860620;77;20245;-64
2021/05/11 14:18:58;;;;;;;;;;;;;;;26.38;23.15;99513.92;1934866;74;20468;-64
2021/05/11 14:21:51;;;;;;;;;;;;;;;26.31;23.43;99509.23;1931306;74;20480;-64
2021/05/11 14:24:47;;;;;;;;;;;;;;;26.23;23.21;99515.13;1833237;77;20237;-64
2021/05/11 14:27:41;;;;;;;;;;;;;;;26.08;23.11;99509.81;1932932;74;20247;-65
2021/05/11 14:30:35;;;;;;;;;;;;;;;25.98;23.42;99507.02;1912048;74;20283;-65
2021/05/11 14:33:31;;;;;;;;;;;;;;;25.86;23.75;99515.22;1927797;74;20225;-64
2021/05/11 14:36:26;;;;;;;;;;;;;;;25.77;23.93;99505.90;1836664;77;20250;-65
2021/05/11 14:39:20;;;;;;;;;;;;;;;25.73;24.06;99500.17;1930066;74;20229;-64
2021/05/11 14:42:13;;;;;;;;;;;;;;;25.69;24.22;99497.69;1921321;74;20232;-65
2021/05/11 14:45:10;;;;;;;;;;;;;;;25.63;24.56;99497.89;1830681;77;20146;-65
2021/05/11 14:48:04;;;;;;;;;;;;;;;25.53;24.60;99493.98;1918427;74;20229;-64
2021/05/11 14:51:00;;;;;;;;;;;;;;;25.43;24.56;99487.61;1845410;77;20308;-65
2021/05/11 14:53:48;;;;;;;;;;;;;;;25.32;24.66;99491.52;1798359;78;20156;-65
2021/05/11 14:56:42;;;;;;;;;;;;;;;25.29;25.23;99479.86;1935068;74;20225;-65
2021/05/11 14:59:41;;;;;;;;;;;;;;;25.21;25.19;99491.06;1885213;74;20231;-65
2021/05/11 15:02:27;;;;;;;;;;;;;;;25.09;25.17;99487.66;1899416;75;20132;-65
2021/05/11 15:05:23;;;;;;;;;;;;;;;25.01;25.35;99484.84;1845411;77;20139;-63
2021/05/11 15:08:09;;;;;;;;;;;;;;;24.91;25.55;99486.87;1761317;78;20185;-64
2021/05/11 15:11:03;;;;;;;;;;;;;;;24.84;25.57;99483.51;1915451;74;20133;-65
2021/05/11 15:13:59;;;;;;;;;;;;;;;24.73;26.07;99472.25;1937020;74;20229;-65
2021/05/11 15:16:58;;;;;;;;;;;;;;;24.67;26.02;99474.56;1884762;76;20231;-65
2021/05/11 15:19:51;;;;;;;;;;;;;;;24.58;26.13;99469.58;1923522;74;20244;-65
2021/05/11 15:22:50;;;;;;;;;;;;;;;24.53;26.50;99470.02;1936559;74;20398;-64
2021/05/11 15:25:41;;;;;;;;;;;;;;;24.43;26.38;99465.24;1936776;74;20228;-64
2021/05/11 15:28:46;;;;;;;;;;;;;;;24.36;26.71;99472.14;1935522;74;20413;-65
2021/05/11 15:31:40;;;;;;;;;;;;;;;24.28;26.68;99471.20;1921186;74;20122;-65
2021/05/11 15:34:34;;;;;;;;;;;;;;;24.19;26.89;99469.41;1936189;74;20236;-62
2021/05/11 15:37:30;;;;;;;;;;;;;;;24.11;27.10;99466.27;1900747;74;20233;-65
2021/05/11 15:40:25;;;;;;;;;;;;;;;24.03;27.53;99467.48;1936006;74;20237;-64
2021/05/11 15:43:19;;;;;;;;;;;;;;;23.94;27.72;99478.38;1934480;74;20240;-65
2021/05/11 15:46:12;;;;;;;;;;;;;;;23.81;27.79;99474.92;1925071;74;20481;-63
2021/05/11 15:49:07;;;;;;;;;;;;;;;23.73;28.26;99475.79;1845342;77;20230;-65
2021/05/11 15:52:01;;;;;;;;;;;;;;;23.65;28.45;99468.89;1924682;74;20228;-64
2021/05/11 15:54:54;;;;;;;;;;;;;;;23.58;28.50;99468.20;1905922;74;20239;-65
2021/05/11 15:57:50;;;;;;;;;;;;;;;23.52;28.93;99469.16;1904129;74;20234;-64
2021/05/11 16:00:50;;;;;;;;;;;;;;;23.46;28.99;99470.94;1843931;77;20234;-65
2021/05/11 16:03:44;;;;;;;;;;;;;;;23.43;29.09;99469.52;1915447;74;20244;-63
2021/05/11 16:06:39;;;;;;;;;;;;;;;23.39;29.38;99466.19;1918001;74;20271;-66
2021/05/11 16:09:25;;;;;;;;;;;;;;;23.31;29.51;99463.33;1893980;75;20144;-64
2021/05/11 16:12:20;;;;;;;;;;;;;;;23.31;29.53;99457.12;1927933;74;20241;-65
2021/05/11 16:15:15;;;;;;;;;;;;;;;23.27;29.82;99458.13;1903444;74;20236;-64
2021/05/11 16:18:09;;;;;;;;;;;;;;;23.26;29.98;99456.47;1930192;74;20129;-64
2021/05/11 16:21:04;;;;;;;;;;;;;;;23.22;30.14;99453.96;1938715;74;20236;-64
2021/05/11 16:24:12;;;;;;;;;;;;;;;23.17;30.24;99450.61;1938173;74;20303;-66
2021/05/11 16:27:06;;;;;;;;;;;;;;;23.11;30.82;99444.02;1916996;74;20230;-65
2021/05/11 16:30:00;;;;;;;;;;;;;;;23.04;30.76;99451.70;1937133;74;20229;-66
2021/05/11 16:32:55;;;;;;;;;;;;;;;22.97;30.91;99452.31;1897505;74;20236;-65
2021/05/11 16:36:00;;;;;;;;;;;;;;;22.90;31.26;99454.30;1937738;74;20129;-66
2021/05/11 16:38:53;;;;;;;;;;;;;;;22.80;31.25;99448.66;1906228;74;20233;-65
2021/05/11 16:41:47;;;;;;;;;;;;;;;22.72;31.61;99451.71;1935991;74;20236;-65
2021/05/11 16:44:41;;;;;;;;;;;;;;;22.61;31.71;99440.70;1931224;74;20118;-64
2021/05/11 16:47:35;;;;;;;;;;;;;;;22.47;32.23;99442.77;1928031;74;20503;-65
2021/05/11 16:50:30;;;;;;;;;;;;;;;22.34;32.39;99444.87;1930141;74;20225;-65
2021/05/11 16:53:24;;;;;;;;;;;;;;;22.19;32.66;99443.92;1936541;74;20241;-65
2021/05/11 16:56:10;;;;;;;;;;;;;;;22.03;33.06;99452.95;1851175;75;20122;-66
2021/05/11 16:59:06;;;;;;;;;;;;;;;21.90;33.47;99453.95;1914765;74;20232;-65
2021/05/11 17:02:01;;;;;;;;;;;;;;;21.75;33.62;99451.34;1909226;74;20236;-66
2021/05/11 17:05:14;;;;;;;;;;;;;;;21.59;34.08;99454.14;1899673;74;20245;-65
2021/05/11 17:08:01;;;;;;;;;;;;;;;21.41;34.29;99454.41;1872534;75;20124;-65
2021/05/11 17:10:54;;;;;;;;;;;;;;;21.28;34.67;99447.83;1938718;74;20229;-64
2021/05/11 17:13:48;;;;;;;;;;;;;;;21.14;35.28;99444.47;1913035;74;20473;-64
2021/05/11 17:16:45;;;;;;;;;;;;;;;21.00;35.25;99447.80;1844880;77;20135;-65
2021/05/11 17:19:39;;;;;;;;;;;;;;;20.85;35.62;99436.05;1938867;74;20287;-65
2021/05/11 17:22:34;;;;;;;;;;;;;;;20.72;35.75;99438.38;1922907;74;20137;-64
2021/05/11 17:25:29;;;;;;;;;;;;;;;20.62;36.14;99439.90;1903798;74;20244;-65
2021/05/11 17:28:26;;;;;;;;;;;;;;;20.52;36.21;99436.34;1842584;77;20297;-64
2021/05/11 17:31:20;;;;;;;;;;;;;;;20.45;36.56;99443.63;1938310;74;20134;-64
2021/05/11 17:34:07;;;;;;;;;;;;;;;20.36;36.85;99451.92;1895904;75;20171;-65
2021/05/11 17:37:01;;;;;;;;;;;;;;;20.33;37.10;99449.70;1838074;77;20127;-65
2021/05/11 17:39:56;;;;;;;;;;;;;;;20.28;37.26;99449.52;1935356;74;20240;-64
2021/05/11 17:44:00;;;;;;;;;;;;;;;20.21;37.37;99469.39;1534174;93;20175;-64
2021/05/11 17:46:56;;;;;;;;;;;;;;;20.17;37.36;99486.45;1527240;89;20245;-65
2021/05/11 17:49:53;;;;;;;;;;;;;;;20.12;38.10;99492.97;1524090;93;20234;-64
2021/05/11 17:52:47;;;;;;;;;;;;;;;20.11;38.82;99488.66;1587248;86;20217;-64
2021/05/11 17:55:42;;;;;;;;;;;;;;;20.09;38.98;99490.20;1558983;87;20223;-65
2021/05/11 17:58:36;;;;;;;;;;;;;;;20.06;39.44;99485.79;1587175;86;20492;-64
2021/05/11 18:01:30;;;;;;;;;;;;;;;20.04;39.68;99490.02;1575701;86;20138;-64
2021/05/11 18:04:25;;;;;;;;;;;;;;;20.02;40.12;99488.60;1594310;86;20146;-64
2021/05/11 18:07:31;;;;;;;;;;;;;;;19.98;40.23;99485.00;1575146;88;20217;-63
2021/05/11 18:10:16;;;;;;;;;;;;;;;19.91;40.31;99490.91;1568391;87;20466;-64
2021/05/11 18:13:11;;;;;;;;;;;;;;;19.89;40.87;99492.98;1594277;86;20504;-64
2021/05/11 18:16:09;;;;;;;;;;;;;;;19.83;41.25;99489.82;1569577;88;20510;-63
2021/05/11 18:19:10;;;;;;;;;;;;;;;19.74;41.81;99498.61;1580011;86;20206;-64
2021/05/11 18:22:04;;;;;;;;;;;;;;;19.67;44.04;99529.16;1595315;86;20218;-64
2021/05/11 18:24:58;;;;;;;;;;;;;;;19.52;44.86;99539.59;1574180;86;20214;-64
2021/05/11 18:27:51;;;;;;;;;;;;;;;19.35;47.61;99537.06;1591734;86;20217;-63
2021/05/11 18:30:45;;;;;;;;;;;;;;;19.12;49.05;99552.25;1576170;90;20209;-65
2021/05/11 18:33:39;;;;;;;;;;;;;;;18.91;50.27;99552.77;1587327;88;20169;-64
2021/05/11 18:39:36;;;;;;;;;;;;;;;18.65;52.77;99562.06;1572540;86;20205;-64
2021/05/11 18:43:33;;;;;;;;;;;;;;;18.49;53.81;99580.69;1832834;77;20162;-64
2021/05/11 18:46:00;;;;;;;;;;;;;;;18.34;54.72;99577.64;1824067;78;20125;-64
2021/05/11 18:48:27;;;;;;;;;;;;;;;18.23;54.99;99560.31;1816731;78;20160;-63
2021/05/11 18:50:53;;;;;;;;;;;;;;;18.14;56.01;99566.05;1818639;78;20156;-63
2021/05/11 18:53:20;;;;;;;;;;;;;;;18.00;56.29;99563.84;1820405;78;20152;-64
2021/05/11 18:55:47;;;;;;;;;;;;;;;17.87;56.68;99551.23;1793057;78;20159;-64
2021/05/11 18:58:13;;;;;;;;;;;;;;;17.77;57.00;99548.08;1767346;80;20553;-64
2021/05/11 19:00:39;;;;;;;;;;;;;;;17.66;57.95;99546.78;1782191;80;20217;-64
2021/05/11 19:03:06;;;;;;;;;;;;;;;17.55;58.30;99551.34;1787571;80;20461;-66